createdAt,value
2018-02-09T00:00:22.705Z,36.15
2018-02-09T00:02:50.219Z,39.58
2018-02-09T00:05:17.736Z,35.17
2018-02-09T00:07:46.024Z,32.67
2018-02-09T00:10:14.322Z,36.50
2018-02-09T00:12:41.837Z,36.80
2018-02-09T00:15:10.133Z,37.72
2018-02-09T00:17:38.410Z,35.75
2018-02-09T00:20:06.701Z,36.00
2018-02-09T00:22:46.066Z,35.97
2018-02-09T00:25:13.580Z,35.05
2018-02-09T00:27:41.848Z,37.03
2018-02-09T00:30:10.128Z,35.42
2018-02-09T00:32:38.401Z,35.78
2018-02-09T00:35:06.684Z,35.55
2018-02-09T00:37:34.958Z,34.80
2018-02-09T00:40:03.267Z,36.00
2018-02-09T00:42:30.764Z,38.70
2018-02-09T00:44:58.267Z,36.08
2018-02-09T00:47:25.795Z,36.00
2018-02-09T00:49:54.091Z,35.10
2018-02-09T00:52:22.381Z,35.17
2018-02-09T00:54:49.890Z,34.85
2018-02-09T00:57:17.405Z,36.03
2018-02-09T00:59:44.937Z,37.45
2018-02-09T01:02:13.218Z,35.58
2018-02-09T01:04:41.494Z,35.28
2018-02-09T01:07:09.836Z,34.35
2018-02-09T01:09:37.330Z,33.92
2018-02-09T01:12:05.635Z,33.30
2018-02-09T01:14:33.140Z,38.25
2018-02-09T01:17:00.666Z,35.72
2018-02-09T01:19:28.155Z,35.70
2018-02-09T01:21:55.678Z,35.75
2018-02-09T01:24:23.194Z,34.28
2018-02-09T01:26:51.501Z,34.08
2018-02-09T01:29:19.001Z,35.03
2018-02-09T01:31:46.520Z,34.35
2018-02-09T01:34:14.059Z,33.97
2018-02-09T01:36:41.569Z,34.88
2018-02-09T01:39:09.098Z,35.40
2018-02-09T01:41:36.606Z,38.42
2018-02-09T01:44:04.919Z,33.53
2018-02-09T01:46:32.439Z,32.90
2018-02-09T01:48:59.970Z,34.30
2018-02-09T01:51:27.499Z,38.53
2018-02-09T01:53:55.013Z,35.78
2018-02-09T01:56:22.555Z,37.55
2018-02-09T01:58:50.073Z,35.13
2018-02-09T02:01:17.597Z,36.50
2018-02-09T02:03:45.092Z,36.78
2018-02-09T02:06:12.657Z,35.03
2018-02-09T02:08:40.165Z,35.22
2018-02-09T02:11:07.703Z,37.05
2018-02-09T02:13:35.224Z,37.85
2018-02-09T02:16:02.772Z,37.33
2018-02-09T02:18:31.037Z,36.75
2018-02-09T02:20:59.318Z,37.10
2018-02-09T02:23:27.616Z,35.03
2018-02-09T02:25:55.116Z,39.35
2018-02-09T02:28:22.650Z,35.65
2018-02-09T02:30:50.167Z,36.50
2018-02-09T02:33:19.468Z,35.58
2018-02-09T02:35:47.736Z,34.17
2018-02-09T02:38:16.042Z,34.65
2018-02-09T02:40:43.572Z,33.85
2018-02-09T02:43:11.855Z,36.65
2018-02-09T02:45:40.167Z,35.40
2018-02-09T02:48:07.679Z,31.67
2018-02-09T02:50:35.206Z,33.75
2018-02-09T02:53:02.709Z,35.58
2018-02-09T02:55:30.255Z,33.05
2018-02-09T02:57:57.780Z,36.58
2018-02-09T03:00:25.292Z,37.70
2018-02-09T03:02:53.581Z,35.45
2018-02-09T03:05:21.125Z,38.13
2018-02-09T03:07:49.403Z,37.30
2018-02-09T03:10:17.681Z,34.72
2018-02-09T03:12:45.960Z,36.42
2018-02-09T03:15:14.233Z,37.30
2018-02-09T03:17:42.521Z,36.35
2018-02-09T03:20:10.033Z,35.00
2018-02-09T03:22:37.566Z,33.90
2018-02-09T03:25:05.069Z,32.90
2018-02-09T03:27:33.371Z,35.58
2018-02-09T03:30:00.897Z,35.85
2018-02-09T03:32:28.408Z,34.05
2018-02-09T03:34:55.933Z,36.45
2018-02-09T03:37:24.211Z,34.90
2018-02-09T03:39:52.492Z,38.70
2018-02-09T03:42:20.755Z,35.58
2018-02-09T03:44:49.060Z,34.67
2018-02-09T03:47:16.576Z,36.00
2018-02-09T03:49:44.101Z,34.60
2018-02-09T03:52:11.609Z,33.45
2018-02-09T03:54:39.922Z,33.55
2018-02-09T03:57:07.444Z,36.60
2018-02-09T03:59:35.736Z,35.92
2018-02-09T04:02:03.278Z,36.63
2018-02-09T04:04:31.572Z,34.70
2018-02-09T04:06:59.110Z,37.25
2018-02-09T04:09:27.408Z,37.45
2018-02-09T04:11:54.933Z,33.63
2018-02-09T04:14:22.428Z,36.28
2018-02-09T04:16:49.990Z,32.90
2018-02-09T04:19:17.488Z,36.22
2018-02-09T04:21:44.998Z,34.75
2018-02-09T04:24:12.526Z,35.50
2018-02-09T04:26:40.034Z,37.80
2018-02-09T04:29:07.558Z,33.97
2018-02-09T04:31:35.847Z,32.70
2018-02-09T04:34:04.152Z,32.92
2018-02-09T04:36:31.659Z,35.58
2018-02-09T04:38:59.189Z,34.75
2018-02-09T04:41:26.692Z,34.90
2018-02-09T04:43:54.986Z,35.30
2018-02-09T04:46:22.498Z,34.42
2018-02-09T04:48:50.010Z,35.22
2018-02-09T04:51:17.551Z,31.77
2018-02-09T04:53:45.826Z,34.45
2018-02-09T04:56:14.130Z,37.08
2018-02-09T04:58:41.660Z,36.10
2018-02-09T05:01:10.587Z,36.72
2018-02-09T05:03:38.258Z,36.13
2018-02-09T05:06:07.339Z,34.00
2018-02-09T05:08:36.207Z,37.45
2018-02-09T05:11:04.861Z,34.85
2018-02-09T05:13:33.054Z,33.60
2018-02-09T05:16:00.628Z,32.33
2018-02-09T05:18:28.154Z,30.20
2018-02-09T05:20:55.698Z,32.20
2018-02-09T05:23:23.227Z,34.00
2018-02-09T05:25:50.737Z,32.85
2018-02-09T05:28:18.275Z,34.05
2018-02-09T05:30:45.797Z,32.42
2018-02-09T05:33:13.330Z,36.03
2018-02-09T05:35:41.691Z,32.72
2018-02-09T05:38:09.285Z,33.88
2018-02-09T05:40:36.814Z,33.80
2018-02-09T05:43:05.104Z,36.45
2018-02-09T05:45:33.383Z,35.00
2018-02-09T05:48:01.671Z,33.83
2018-02-09T05:50:29.264Z,35.17
2018-02-09T05:52:56.781Z,35.55
2018-02-09T05:55:24.306Z,34.70
2018-02-09T05:57:52.670Z,35.28
2018-02-09T06:00:20.225Z,32.20
2018-02-09T06:02:47.746Z,34.97
2018-02-09T06:05:15.249Z,36.85
2018-02-09T06:07:42.784Z,32.00
2018-02-09T06:10:10.284Z,33.17
2018-02-09T06:12:37.822Z,36.40
2018-02-09T06:15:05.334Z,32.88
2018-02-09T06:17:32.866Z,35.63
2018-02-09T06:20:00.369Z,35.22
2018-02-09T06:22:27.920Z,34.58
2018-02-09T06:24:55.433Z,35.22
2018-02-09T06:27:22.937Z,34.47
2018-02-09T06:29:50.466Z,34.50
2018-02-09T06:32:18.742Z,37.83
2018-02-09T06:34:47.048Z,36.22
2018-02-09T06:37:14.551Z,38.03
2018-02-09T06:39:42.080Z,34.47
2018-02-09T06:42:09.603Z,31.52
2018-02-09T06:44:37.896Z,33.97
2018-02-09T06:47:05.421Z,33.53
2018-02-09T06:49:32.937Z,34.58
2018-02-09T06:52:00.447Z,32.20
2018-02-09T06:54:28.734Z,34.60
2018-02-09T06:56:57.016Z,34.30
2018-02-09T06:59:25.278Z,33.33
2018-02-09T07:01:53.569Z,31.75
2018-02-09T07:04:21.841Z,33.95
2018-02-09T07:06:50.130Z,32.38
2018-02-09T07:09:17.650Z,36.50
2018-02-09T07:11:45.263Z,35.33
2018-02-09T07:14:12.769Z,34.13
2018-02-09T07:16:40.296Z,36.13
2018-02-09T07:19:07.818Z,35.63
2018-02-09T07:21:35.334Z,31.75
2018-02-09T07:24:02.884Z,33.90
2018-02-09T07:26:30.520Z,35.35
2018-02-09T07:28:58.101Z,33.78
2018-02-09T07:31:25.578Z,33.58
2018-02-09T07:33:53.111Z,31.98
2018-02-09T07:36:20.622Z,35.13
2018-02-09T07:38:48.888Z,34.45
2018-02-09T07:41:17.195Z,31.77
2018-02-09T07:43:44.716Z,31.62
2018-02-09T07:46:12.256Z,31.98
2018-02-09T07:48:39.777Z,33.22
2018-02-09T07:51:07.301Z,35.95
2018-02-09T07:53:35.592Z,32.00
2018-02-09T07:56:03.117Z,34.30
2018-02-09T07:58:30.631Z,32.75
2018-02-09T08:00:58.175Z,33.42
2018-02-09T08:03:25.695Z,32.50
2018-02-09T08:05:53.206Z,31.80
2018-02-09T08:08:20.732Z,30.92
2018-02-09T08:10:49.016Z,32.80
2018-02-09T08:13:17.311Z,32.55
2018-02-09T08:15:44.815Z,32.17
2018-02-09T08:18:12.333Z,32.13
2018-02-09T08:20:39.851Z,30.60
2018-02-09T08:23:08.149Z,31.85
2018-02-09T08:25:37.171Z,29.98
2018-02-09T08:28:04.683Z,29.87
2018-02-09T08:30:32.207Z,31.00
2018-02-09T08:32:59.720Z,30.95
2018-02-09T08:35:27.249Z,29.80
2018-02-09T08:37:54.748Z,28.17
2018-02-09T08:40:22.273Z,27.77
2018-02-09T08:42:49.781Z,30.80
2018-02-09T08:45:17.306Z,27.62
2018-02-09T08:47:45.578Z,27.67
2018-02-09T08:50:13.886Z,26.50
2018-02-09T08:52:41.394Z,27.27
2018-02-09T08:55:08.906Z,26.37
2018-02-09T08:57:36.429Z,26.92
2018-02-09T09:00:05.107Z,25.60
2018-02-09T09:02:32.658Z,26.35
2018-02-09T09:05:00.157Z,24.50
2018-02-09T09:07:27.678Z,23.73
2018-02-09T09:09:55.179Z,25.58
2018-02-09T09:12:22.715Z,25.92
2018-02-09T09:14:50.999Z,24.98
2018-02-09T09:17:18.496Z,24.00
2018-02-09T09:19:46.033Z,22.42
2018-02-09T09:22:13.537Z,22.65
2018-02-09T09:24:41.074Z,26.98
2018-02-09T09:27:08.581Z,22.75
2018-02-09T09:29:36.874Z,24.83
2018-02-09T09:32:04.396Z,23.45
2018-02-09T09:34:31.921Z,24.73
2018-02-09T09:36:59.430Z,23.67
2018-02-09T09:39:27.765Z,22.02
2018-02-09T09:41:55.262Z,24.60
2018-02-09T09:44:23.538Z,23.77
2018-02-09T09:46:51.821Z,22.73
2018-02-09T09:49:20.293Z,23.10
2018-02-09T09:51:48.576Z,22.95
2018-02-09T09:54:16.850Z,21.17
2018-02-09T09:56:45.148Z,23.10
2018-02-09T09:59:12.644Z,20.45
2018-02-09T10:01:40.171Z,22.90
2018-02-09T10:04:07.681Z,21.45
2018-02-09T10:06:35.191Z,21.23
2018-02-09T10:09:02.726Z,19.50
2018-02-09T10:11:31.015Z,21.40
2018-02-09T10:13:58.538Z,21.20
2018-02-09T10:16:26.047Z,22.15
2018-02-09T10:18:53.565Z,22.62
2018-02-09T10:21:21.852Z,23.23
2018-02-09T10:23:50.139Z,22.52
2018-02-09T10:26:18.463Z,22.85
2018-02-09T10:28:45.983Z,21.37
2018-02-09T10:31:13.500Z,21.35
2018-02-09T10:33:41.007Z,22.55
2018-02-09T10:36:08.517Z,22.98
2018-02-09T10:38:36.035Z,22.13
2018-02-09T10:41:03.571Z,21.73
2018-02-09T10:43:31.077Z,20.98
2018-02-09T10:45:58.596Z,22.58
2018-02-09T10:48:26.112Z,21.70
2018-02-09T10:50:53.623Z,22.08
2018-02-09T10:53:21.176Z,23.62
2018-02-09T10:55:49.456Z,20.70
2018-02-09T10:58:16.958Z,22.15
2018-02-09T11:00:50.135Z,21.23
2018-02-09T11:03:17.642Z,21.48
2018-02-09T11:05:45.913Z,22.17
2018-02-09T11:08:14.192Z,21.10
2018-02-09T11:10:47.479Z,20.50
2018-02-09T11:13:15.775Z,21.30
2018-02-09T11:15:43.286Z,22.92
2018-02-09T11:18:10.804Z,23.17
2018-02-09T11:20:38.305Z,20.15
2018-02-09T11:23:05.808Z,19.90
2018-02-09T11:25:33.330Z,22.40
2018-02-09T11:28:00.848Z,20.62
2018-02-09T11:30:28.364Z,20.75
2018-02-09T11:32:56.656Z,21.62
2018-02-09T11:35:24.159Z,19.58
2018-02-09T11:37:51.679Z,20.85
2018-02-09T11:40:19.201Z,21.50
2018-02-09T11:42:46.707Z,19.92
2018-02-09T11:45:14.256Z,20.37
2018-02-09T11:47:41.761Z,23.08
2018-02-09T11:50:09.253Z,20.35
2018-02-09T11:52:37.523Z,20.62
2018-02-09T11:55:05.780Z,23.27
2018-02-09T11:57:33.306Z,18.80
2018-02-09T12:00:00.800Z,19.40
2018-02-09T12:02:28.330Z,20.48
2018-02-09T12:04:55.837Z,18.75
2018-02-09T12:07:24.134Z,18.83
2018-02-09T12:09:51.656Z,17.70
2018-02-09T12:12:19.176Z,18.20
2018-02-09T12:14:46.710Z,21.25
2018-02-09T12:17:14.230Z,20.00
2018-02-09T12:19:41.750Z,20.33
2018-02-09T12:22:09.297Z,19.90
2018-02-09T12:24:36.818Z,19.27
2018-02-09T12:27:05.089Z,17.95
2018-02-09T12:29:33.391Z,19.87
2018-02-09T12:32:00.902Z,20.10
2018-02-09T12:34:29.189Z,19.50
2018-02-09T12:36:56.698Z,18.25
2018-02-09T12:39:24.217Z,21.23
2018-02-09T12:41:52.501Z,20.45
2018-02-09T12:44:20.788Z,20.88
2018-02-09T12:46:49.090Z,19.67
2018-02-09T12:49:16.608Z,19.05
2018-02-09T12:51:44.885Z,19.45
2018-02-09T12:54:13.148Z,19.42
2018-02-09T12:56:40.673Z,21.05
2018-02-09T12:59:08.173Z,20.27
2018-02-09T13:01:35.671Z,21.33
2018-02-09T13:04:03.191Z,18.65
2018-02-09T13:06:31.475Z,21.42
2018-02-09T13:08:59.752Z,21.55
2018-02-09T13:11:28.036Z,20.67
2018-02-09T13:13:56.309Z,19.15
2018-02-09T13:16:24.585Z,20.37
2018-02-09T13:18:52.856Z,19.42
2018-02-09T13:21:21.139Z,21.50
2018-02-09T13:24:01.355Z,19.05
2018-02-09T13:26:28.875Z,20.60
2018-02-09T13:28:59.031Z,19.55
2018-02-09T13:31:26.568Z,20.70
2018-02-09T13:33:54.077Z,20.27
2018-02-09T13:36:33.514Z,19.17
2018-02-09T13:39:01.802Z,21.33
2018-02-09T13:41:30.093Z,20.17
2018-02-09T13:43:57.588Z,19.73
2018-02-09T13:46:25.119Z,19.37
2018-02-09T13:48:52.635Z,18.90
2018-02-09T13:51:20.175Z,20.95
2018-02-09T13:53:48.534Z,21.17
2018-02-09T13:56:16.038Z,18.60
2018-02-09T13:58:44.339Z,19.60
2018-02-09T14:01:11.846Z,20.23
2018-02-09T14:03:39.378Z,19.10
2018-02-09T14:06:06.891Z,20.00
2018-02-09T14:08:35.186Z,20.67
2018-02-09T14:11:03.511Z,19.87
2018-02-09T14:13:31.041Z,21.15
2018-02-09T14:15:58.549Z,20.48
2018-02-09T14:18:26.065Z,20.40
2018-02-09T14:20:53.599Z,21.00
2018-02-09T14:23:21.902Z,21.67
2018-02-09T14:25:49.414Z,21.52
2018-02-09T14:28:17.699Z,22.70
2018-02-09T14:30:45.996Z,23.38
2018-02-09T14:33:13.493Z,21.62
2018-02-09T14:35:41.018Z,22.02
2018-02-09T14:38:08.535Z,21.60
2018-02-09T14:40:36.045Z,22.60
2018-02-09T14:43:03.566Z,23.62
2018-02-09T14:45:31.838Z,23.65
2018-02-09T14:48:00.140Z,23.15
2018-02-09T14:50:27.645Z,21.37
2018-02-09T14:52:55.179Z,22.27
2018-02-09T14:55:22.677Z,22.30
2018-02-09T14:57:50.971Z,21.23
2018-02-09T15:00:19.699Z,23.67
2018-02-09T15:02:47.229Z,21.98
2018-02-09T15:05:15.512Z,22.62
2018-02-09T15:07:43.012Z,21.55
2018-02-09T15:10:10.546Z,21.55
2018-02-09T15:12:38.064Z,21.02
2018-02-09T15:15:06.357Z,19.98
2018-02-09T15:17:34.638Z,20.95
2018-02-09T15:20:02.171Z,21.62
2018-02-09T15:22:29.680Z,20.75
2018-02-09T15:24:57.188Z,19.55
2018-02-09T15:27:24.707Z,19.70
2018-02-09T15:29:52.223Z,22.33
2018-02-09T15:32:20.519Z,21.05
2018-02-09T15:34:48.016Z,20.88
2018-02-09T15:37:15.548Z,23.30
2018-02-09T15:39:43.054Z,22.70
2018-02-09T15:42:10.578Z,22.65
2018-02-09T15:44:38.085Z,21.83
2018-02-09T15:47:06.359Z,21.65
2018-02-09T15:49:34.640Z,22.58
2018-02-09T15:52:02.980Z,23.70
2018-02-09T15:54:30.459Z,22.20
2018-02-09T15:56:57.972Z,21.33
2018-02-09T15:59:25.498Z,20.73
2018-02-09T16:01:53.766Z,21.75
2018-02-09T16:04:22.053Z,22.30
2018-02-09T16:06:50.326Z,22.02
2018-02-09T16:09:18.613Z,22.55
2018-02-09T16:11:46.111Z,21.37
2018-02-09T16:14:14.394Z,21.10
2018-02-09T16:16:41.892Z,20.88
2018-02-09T16:19:10.213Z,23.05
2018-02-09T16:21:37.740Z,20.75
2018-02-09T16:24:05.264Z,21.37
2018-02-09T16:26:32.794Z,23.30
2018-02-09T16:29:00.306Z,21.08
2018-02-09T16:31:28.593Z,22.58
2018-02-09T16:33:56.096Z,21.00
2018-02-09T16:36:23.635Z,20.85
2018-02-09T16:38:51.146Z,25.23
2018-02-09T16:41:19.434Z,22.45
2018-02-09T16:43:47.710Z,21.95
2018-02-09T16:46:15.986Z,23.65
2018-02-09T16:48:44.277Z,21.62
2018-02-09T16:51:11.855Z,24.05
2018-02-09T16:53:39.395Z,23.38
2018-02-09T16:56:06.906Z,21.33
2018-02-09T16:58:34.445Z,21.67
2018-02-09T17:01:01.967Z,23.23
2018-02-09T17:03:29.489Z,21.27
2018-02-09T17:05:57.006Z,22.13
2018-02-09T17:08:24.534Z,24.92
2018-02-09T17:10:52.859Z,25.27
2018-02-09T17:13:20.373Z,21.58
2018-02-09T17:15:48.850Z,22.85
2018-02-09T17:18:17.135Z,22.45
2018-02-09T17:20:44.673Z,22.80
2018-02-09T17:23:12.953Z,24.10
2018-02-09T17:25:41.273Z,23.85
2018-02-09T17:28:08.781Z,26.92
2018-02-09T17:30:36.300Z,23.23
2018-02-09T17:33:03.819Z,23.15
2018-02-09T17:35:32.094Z,21.20
2018-02-09T17:38:00.399Z,23.65
2018-02-09T17:40:27.905Z,22.40
2018-02-09T17:42:55.427Z,46.50
2018-02-09T17:45:22.933Z,25.30
2018-02-09T17:47:51.235Z,22.98
2018-02-09T17:50:18.812Z,25.45
2018-02-09T17:52:47.068Z,25.60
2018-02-09T17:55:14.569Z,25.60
2018-02-09T17:57:42.102Z,24.50
2018-02-09T18:00:09.624Z,24.12
2018-02-09T18:02:37.897Z,21.70
2018-02-09T18:05:06.188Z,23.30
2018-02-09T18:07:33.702Z,23.62
2018-02-09T18:10:01.220Z,23.98
2018-02-09T18:12:28.726Z,22.42
2018-02-09T18:14:56.267Z,24.80
2018-02-09T18:17:34.812Z,25.02
2018-02-09T18:20:02.337Z,23.80
2018-02-09T18:22:29.860Z,23.20
2018-02-09T18:24:58.148Z,23.20
2018-02-09T18:27:25.659Z,23.10
2018-02-09T18:29:53.175Z,22.13
2018-02-09T18:32:20.696Z,24.75
2018-02-09T18:34:48.984Z,22.75
2018-02-09T18:37:17.274Z,24.50
2018-02-09T18:39:44.785Z,22.65
2018-02-09T18:42:12.310Z,23.50
2018-02-09T18:44:39.812Z,24.37
2018-02-09T18:47:07.346Z,22.75
2018-02-09T18:49:35.629Z,25.27
2018-02-09T18:52:03.138Z,24.67
2018-02-09T18:54:30.660Z,25.23
2018-02-09T18:56:58.855Z,24.65
2018-02-09T18:59:26.448Z,24.20
2018-02-09T19:01:54.002Z,23.00
2018-02-09T19:04:22.292Z,23.17
2018-02-09T19:06:49.801Z,23.85
2018-02-09T19:09:18.121Z,25.25
2018-02-09T19:11:45.637Z,24.58
2018-02-09T19:14:13.932Z,25.27
2018-02-09T19:16:42.235Z,24.83
2018-02-09T19:19:09.737Z,26.58
2018-02-09T19:21:37.252Z,24.73
2018-02-09T19:24:04.748Z,23.62
2018-02-09T19:26:32.274Z,24.25
2018-02-09T19:28:59.785Z,22.98
2018-02-09T19:31:28.075Z,22.87
2018-02-09T19:33:56.354Z,23.42
2018-02-09T19:36:24.678Z,23.65
2018-02-09T19:38:52.180Z,24.10
2018-02-09T19:41:20.538Z,24.75
2018-02-09T19:43:48.065Z,25.30
2018-02-09T19:46:15.578Z,24.48
2018-02-09T19:48:43.885Z,25.80
2018-02-09T19:51:11.412Z,25.92
2018-02-09T19:53:39.696Z,24.85
2018-02-09T19:56:08.018Z,25.65
2018-02-09T19:58:35.541Z,25.12
2018-02-09T20:01:03.048Z,24.15
2018-02-09T20:03:30.558Z,26.15
2018-02-09T20:05:58.095Z,23.17
2018-02-09T20:08:26.388Z,24.87
2018-02-09T20:10:53.913Z,23.45
2018-02-09T20:13:21.430Z,23.90
2018-02-09T20:15:48.949Z,26.23
2018-02-09T20:18:20.238Z,23.65
2018-02-09T20:20:47.785Z,25.37
2018-02-09T20:23:15.299Z,24.33
2018-02-09T20:25:42.824Z,27.37
2018-02-09T20:28:10.343Z,23.55
2018-02-09T20:30:37.869Z,24.92
2018-02-09T20:33:05.401Z,25.62
2018-02-09T20:35:32.909Z,27.58
2018-02-09T20:38:01.220Z,24.55
2018-02-09T20:40:28.730Z,25.02
2018-02-09T20:42:56.258Z,26.30
2018-02-09T20:45:23.770Z,26.40
2018-02-09T20:47:51.673Z,27.05
2018-02-09T20:50:20.206Z,25.88
2018-02-09T20:52:48.476Z,26.87
2018-02-09T20:55:16.003Z,25.88
2018-02-09T20:57:43.526Z,24.60
2018-02-09T21:00:11.071Z,26.35
2018-02-09T21:02:39.348Z,25.85
2018-02-09T21:05:07.652Z,26.17
2018-02-09T21:07:35.152Z,25.25
2018-02-09T21:10:02.692Z,26.10
2018-02-09T21:12:30.205Z,25.80
2018-02-09T21:14:57.746Z,24.95
2018-02-09T21:17:26.043Z,24.80
2018-02-09T21:19:53.572Z,27.40
2018-02-09T21:22:21.124Z,25.23
2018-02-09T21:24:48.619Z,24.70
2018-02-09T21:27:16.142Z,26.70
2018-02-09T21:29:43.694Z,27.90
2018-02-09T21:32:11.190Z,27.15
2018-02-09T21:34:38.702Z,26.12
2018-02-09T21:37:06.247Z,25.48
2018-02-09T21:39:33.763Z,26.10
2018-02-09T21:42:02.043Z,27.90
2018-02-09T21:44:29.567Z,27.65
2018-02-09T21:46:57.078Z,26.17
2018-02-09T21:49:24.620Z,27.73
2018-02-09T21:51:52.123Z,27.50
2018-02-09T21:54:19.635Z,26.12
2018-02-09T21:56:47.901Z,24.27
2018-02-09T21:59:16.197Z,28.55
2018-02-09T22:01:43.710Z,24.55
2018-02-09T22:04:11.218Z,28.73
2018-02-09T22:06:38.746Z,27.75
2018-02-09T22:09:06.242Z,28.00
2018-02-09T22:11:33.779Z,26.95
2018-02-09T22:14:01.294Z,29.87
2018-02-09T22:16:29.604Z,27.13
2018-02-09T22:18:57.886Z,28.60
2018-02-09T22:21:26.174Z,27.00
2018-02-09T22:23:53.690Z,26.35
2018-02-09T22:26:21.236Z,25.37
2018-02-09T22:28:48.737Z,29.00
2018-02-09T22:31:17.036Z,26.25
2018-02-09T22:33:44.561Z,26.27
2018-02-09T22:36:13.392Z,28.00
2018-02-09T22:38:42.077Z,28.70
2018-02-09T22:41:09.668Z,27.95
2018-02-09T22:43:37.184Z,25.60
2018-02-09T22:46:04.683Z,29.05
2018-02-09T22:48:32.222Z,27.05
2018-02-09T22:50:59.729Z,25.85
2018-02-09T22:53:28.072Z,30.05
2018-02-09T22:55:55.557Z,28.55
2018-02-09T22:58:23.065Z,29.27
2018-02-09T23:00:52.187Z,28.15
2018-02-09T23:03:19.698Z,28.08
2018-02-09T23:05:47.213Z,26.37
2018-02-09T23:08:14.733Z,29.20
2018-02-09T23:10:42.279Z,26.67
2018-02-09T23:13:09.779Z,27.20
2018-02-09T23:15:37.296Z,25.98
2018-02-09T23:18:04.808Z,26.33
2018-02-09T23:20:32.368Z,29.17
2018-02-09T23:22:59.848Z,30.58
2018-02-09T23:25:28.133Z,27.90
2018-02-09T23:27:56.426Z,28.65
2018-02-09T23:30:23.924Z,28.60
2018-02-09T23:32:51.471Z,26.50
2018-02-09T23:35:18.974Z,28.15
2018-02-09T23:37:47.273Z,39.45
2018-02-09T23:40:14.798Z,31.33
2018-02-09T23:42:42.296Z,29.83
2018-02-09T23:45:09.823Z,28.27
2018-02-09T23:47:38.119Z,27.45
2018-02-09T23:50:06.412Z,26.23
2018-02-09T23:52:33.927Z,27.20
2018-02-09T23:55:01.481Z,28.50
2018-02-09T23:57:29.004Z,29.02
2018-02-09T23:59:56.541Z,28.48
